^^
Saratoga-Weather Station Historical Data
Daily Summary for April 23, 2021 Units:  English    Metric   Both
Daily Weekly Monthly Yearly Custom
  High: Low: Average:
Temperature: 72.9 °F 45.1 °F 58.1 °F
Dew Point: 56.7 °F 44.1 °F 50.4 °F
Humidity: 97% 52% 78%
Wind Speed: 11mph 0mph 1.7mph
Wind Gust: 12mph - -
Wind- - SW
Pressure: 30.3 in 30.1 in -
Precipitation: 0 in    
Historical Graphs
 
 
Tabular Data for April 23, 2021
Time Temperature Dew Point Pressure Wind Wind Speed Wind Gust Humidity Rainfall Rate (Hourly) solar
00:02 51.6 °F 49.1 °F 30.3 in Calm     91% 0 in 0 W/m2
00:07 51.4 °F 48.9 °F 30.3 in SE 2 mph 2 mph 91% 0 in 0 W/m2
00:12 51.4 °F 49.3 °F 30.2 in Calm   1 mph 92% 0 in 0 W/m2
00:17 51.4 °F 49.3 °F 30.3 in Calm     92% 0 in 0 W/m2
00:22 51.4 °F 49.3 °F 30.3 in Calm   1 mph 92% 0 in 0 W/m2
00:38 51.1 °F 48.9 °F 30.3 in Calm     92% 0 in 0 W/m2
00:43 51.1 °F 48.9 °F 30.3 in Calm     92% 0 in 0 W/m2
00:48 50.7 °F 48.6 °F 30.3 in Calm     92% 0 in 0 W/m2
00:53 50.7 °F 48.7 °F 30.3 in Calm     93% 0 in 0 W/m2
00:58 50.5 °F 48.6 °F 30.3 in Calm     93% 0 in 0 W/m2
01:03 50.5 °F 48.6 °F 30.3 in Calm     93% 0 in 0 W/m2
01:08 50.4 °F 48.4 °F 30.2 in Calm     93% 0 in 0 W/m2
01:25 50.2 °F 48.2 °F 30.2 in Calm     93% 0 in 0 W/m2
01:30 50.2 °F 48.6 °F 30.2 in Calm     94% 0 in 0 W/m2
01:35 50 °F 48 °F 30.2 in Calm     93% 0 in 0 W/m2
01:40 50 °F 48.4 °F 30.2 in Calm     94% 0 in 0 W/m2
01:45 49.8 °F 48.2 °F 30.2 in Calm     94% 0 in 0 W/m2
01:50 49.8 °F 48.2 °F 30.2 in Calm     94% 0 in 0 W/m2
01:55 49.8 °F 48.2 °F 30.2 in Calm     94% 0 in 0 W/m2
02:00 49.8 °F 48.2 °F 30.2 in Calm     94% 0 in 0 W/m2
02:05 49.6 °F 48 °F 30.2 in Calm     94% 0 in 0 W/m2
02:10 49.6 °F 48 °F 30.2 in Calm     94% 0 in 0 W/m2
02:15 49.6 °F 48 °F 30.2 in Calm     94% 0 in 0 W/m2
02:20 49.5 °F 47.8 °F 30.2 in Calm     94% 0 in 0 W/m2
02:25 49.3 °F 47.7 °F 30.2 in Calm     94% 0 in 0 W/m2
02:30 49.1 °F 47.5 °F 30.2 in Calm     94% 0 in 0 W/m2
02:35 48.9 °F 47.3 °F 30.2 in Calm     94% 0 in 0 W/m2
02:40 48.9 °F 47.3 °F 30.2 in Calm     94% 0 in 0 W/m2
02:45 48.7 °F 47.1 °F 30.2 in Calm     94% 0 in 0 W/m2
03:04 48.6 °F 46.9 °F 30.2 in Calm     94% 0 in 0 W/m2
03:09 48.6 °F 46.9 °F 30.2 in Calm     94% 0 in 0 W/m2
03:14 48.4 °F 46.8 °F 30.2 in Calm     94% 0 in 0 W/m2
03:19 48.4 °F 46.8 °F 30.2 in Calm     94% 0 in 0 W/m2
03:24 48 °F 46.4 °F 30.2 in Calm     94% 0 in 0 W/m2
03:29 48 °F 46.4 °F 30.2 in Calm     94% 0 in 0 W/m2
03:34 47.8 °F 46.4 °F 30.2 in Calm     95% 0 in 0 W/m2
03:39 48 °F 46.6 °F 30.2 in Calm     95% 0 in 0 W/m2
03:44 48 °F 46.6 °F 30.2 in Calm     95% 0 in 0 W/m2
03:49 48 °F 46.6 °F 30.2 in Calm     95% 0 in 0 W/m2
03:54 47.8 °F 46.4 °F 30.2 in Calm     95% 0 in 0 W/m2
03:59 47.8 °F 46.4 °F 30.2 in Calm     95% 0 in 0 W/m2
04:04 47.8 °F 46.4 °F 30.2 in Calm     95% 0 in 0 W/m2
04:09 47.8 °F 46.4 °F 30.2 in Calm     95% 0 in 0 W/m2
04:14 47.7 °F 46.2 °F 30.2 in Calm     95% 0 in 0 W/m2
04:19 47.7 °F 46.2 °F 30.2 in Calm     95% 0 in 0 W/m2
04:24 47.8 °F 46.4 °F 30.2 in Calm     95% 0 in 0 W/m2
04:29 47.8 °F 46.4 °F 30.2 in Calm     95% 0 in 0 W/m2
04:34 47.8 °F 46.4 °F 30.2 in Calm     95% 0 in 0 W/m2
04:39 47.8 °F 46.4 °F 30.2 in Calm     95% 0 in 0 W/m2
04:44 47.8 °F 46.4 °F 30.2 in Calm     95% 0 in 0 W/m2
04:49 47.8 °F 46.8 °F 30.2 in Calm     96% 0 in 0 W/m2
04:54 47.8 °F 46.8 °F 30.2 in Calm     96% 0 in 0 W/m2
04:59 48 °F 46.9 °F 30.2 in Calm     96% 0 in 0 W/m2
05:04 48 °F 46.9 °F 30.2 in Calm     96% 0 in 0 W/m2
05:10 47.8 °F 46.8 °F 30.2 in Calm     96% 0 in 0 W/m2
05:15 47.8 °F 46.4 °F 30.2 in Calm     95% 0 in 0 W/m2
05:20 47.7 °F 46.2 °F 30.2 in Calm     95% 0 in 0 W/m2
05:25 47.5 °F 46 °F 30.2 in Calm     95% 0 in 0 W/m2
05:30 47.3 °F 45.9 °F 30.2 in Calm     95% 0 in 0 W/m2
05:35 47.1 °F 45.7 °F 30.2 in Calm     95% 0 in 0 W/m2
05:40 46.9 °F 45.5 °F 30.2 in Calm     95% 0 in 0 W/m2
05:45 46.9 °F 45.5 °F 30.2 in Calm     95% 0 in 0 W/m2
05:50 46.8 °F 45.3 °F 30.2 in Calm     95% 0 in 0 W/m2
05:55 46.6 °F 45.1 °F 30.2 in Calm     95% 0 in 0 W/m2
06:00 46.6 °F 45.1 °F 30.2 in Calm     95% 0 in 0 W/m2
06:05 46.4 °F 45 °F 30.2 in Calm     95% 0 in 0 W/m2
06:10 46.2 °F 44.8 °F 30.2 in Calm     95% 0 in 0 W/m2
06:15 46 °F 44.6 °F 30.2 in Calm     95% 0 in 0 W/m2
06:20 46 °F 44.6 °F 30.2 in Calm     95% 0 in 0 W/m2
06:25 46 °F 45 °F 30.2 in Calm     96% 0 in 0 W/m2
06:30 46 °F 45 °F 30.2 in Calm     96% 0 in 0 W/m2
06:35 46.2 °F 45.1 °F 30.2 in Calm     96% 0 in 0 W/m2
06:40 46.2 °F 45.1 °F 30.2 in Calm     96% 0 in 0 W/m2
06:45 46.2 °F 45.1 °F 30.2 in Calm     96% 0 in 0 W/m2
06:50 46 °F 45 °F 30.2 in Calm     96% 0 in 0 W/m2
06:55 46 °F 45 °F 30.2 in Calm     96% 0 in 0 W/m2
07:00 45.9 °F 44.8 °F 30.2 in Calm     96% 0 in 0 W/m2
07:05 45.7 °F 44.6 °F 30.2 in Calm     96% 0 in 0 W/m2
07:10 45.7 °F 44.6 °F 30.2 in Calm     96% 0 in 0 W/m2
07:15 45.5 °F 44.4 °F 30.2 in Calm     96% 0 in 0 W/m2
07:20 45.5 °F 44.4 °F 30.2 in Calm     96% 0 in 0 W/m2
07:26 45.3 °F 44.2 °F 30.2 in Calm     96% 0 in 5 W/m2
07:31 45.3 °F 44.2 °F 30.2 in Calm     96% 0 in 7 W/m2
07:36 45.1 °F 44.1 °F 30.2 in Calm     96% 0 in 9 W/m2
07:41 45.3 °F 44.2 °F 30.2 in Calm   1 mph 96% 0 in 11 W/m2
07:46 45.3 °F 44.2 °F 30.2 in Calm     96% 0 in 12 W/m2
07:51 45.5 °F 44.4 °F 30.2 in Calm     96% 0 in 14 W/m2
07:56 45.5 °F 44.4 °F 30.2 in Calm     96% 0 in 16 W/m2
08:01 45.7 °F 44.6 °F 30.2 in Calm     96% 0 in 16 W/m2
08:06 45.7 °F 44.6 °F 30.2 in Calm     96% 0 in 18 W/m2
08:11 45.9 °F 44.8 °F 30.2 in Calm     96% 0 in 19 W/m2
08:16 45.9 °F 44.8 °F 30.2 in Calm     96% 0 in 21 W/m2
08:21 46 °F 45 °F 30.2 in Calm     96% 0 in 23 W/m2
08:26 46 °F 45 °F 30.2 in Calm     96% 0 in 25 W/m2
08:31 46.4 °F 45.3 °F 30.2 in Calm     96% 0 in 26 W/m2
08:36 46.6 °F 45.5 °F 30.2 in Calm     96% 0 in 26 W/m2
08:41 46.8 °F 45.7 °F 30.2 in Calm     96% 0 in 28 W/m2
08:46 46.9 °F 46.2 °F 30.2 in Calm     97% 0 in 28 W/m2
08:51 47.1 °F 46.4 °F 30.2 in Calm     97% 0 in 30 W/m2
08:56 47.5 °F 46.4 °F 30.2 in Calm     96% 0 in 28 W/m2
09:01 47.7 °F 46.9 °F 30.2 in Calm     97% 0 in 30 W/m2
09:11 48.2 °F 47.3 °F 30.2 in NE 0.9 mph 2 mph 97% 0 in 202 W/m2
09:16 48.7 °F 47.8 °F 30.2 in NE 0.9 mph 2 mph 97% 0 in 218 W/m2
09:21 48.9 °F 48 °F 30.2 in Calm   1 mph 97% 0 in 229 W/m2
09:26 49.5 °F 48.6 °F 30.2 in Calm     97% 0 in 241 W/m2
09:31 49.8 °F 48.9 °F 30.2 in Calm     97% 0 in 253 W/m2
09:36 50.5 °F 49.6 °F 30.2 in Calm     97% 0 in 264 W/m2
09:41 51.4 °F 50.5 °F 30.2 in Calm     97% 0 in 276 W/m2
09:46 51.8 °F 50.9 °F 30.2 in ENE 0.9 mph 3 mph 97% 0 in 292 W/m2
09:51 52.2 °F 51.3 °F 30.2 in East 0.9 mph 3 mph 97% 0 in 306 W/m2
09:56 52.5 °F 51.4 °F 30.2 in ENE 0.9 mph 2 mph 96% 0 in 320 W/m2
10:02 53.2 °F 51.8 °F 30.2 in ENE 2 mph 2 mph 95% 0 in 330 W/m2
10:07 54.1 °F 52.2 °F 30.2 in ENE 2 mph 2 mph 93% 0 in 345 W/m2
10:12 54.7 °F 52.2 °F 30.2 in ESE 0.9 mph 3 mph 91% 0 in 357 W/m2
10:17 55 °F 51.8 °F 30.2 in Calm   3 mph 89% 0 in 373 W/m2
10:22 55.8 °F 52.3 °F 30.2 in NE 2.9 mph 3 mph 88% 0 in 388 W/m2
10:27 56.1 °F 52.3 °F 30.2 in East 0.9 mph 1 mph 87% 0 in 399 W/m2
10:32 56.7 °F 52.2 °F 30.2 in ESE 0.9 mph 2 mph 85% 0 in 415 W/m2
10:37 57 °F 52.2 °F 30.2 in SE 2 mph 3 mph 84% 0 in 429 W/m2
10:42 57.6 °F 52.7 °F 30.2 in Calm   2 mph 84% 0 in 441 W/m2
10:47 57.7 °F 52.3 °F 30.2 in East 2 mph 2 mph 82% 0 in 452 W/m2
10:52 58.1 °F 52.7 °F 30.2 in Calm   4 mph 82% 0 in 462 W/m2
10:57 58.5 °F 52.7 °F 30.2 in ENE 0.9 mph 2 mph 81% 0 in 475 W/m2
11:02 58.6 °F 52.9 °F 30.2 in NE 2 mph 4 mph 81% 0 in 480 W/m2
11:07 59 °F 52.9 °F 30.2 in ENE 2.9 mph 4 mph 80% 0 in 487 W/m2
11:12 59.4 °F 53.2 °F 30.2 in Calm   1 mph 80% 0 in 499 W/m2
11:17 59.9 °F 53.8 °F 30.2 in East 0.9 mph 3 mph 80% 0 in 512 W/m2
11:22 60.4 °F 53.6 °F 30.2 in NE 2.9 mph 3 mph 78% 0 in 513 W/m2
11:27 60.4 °F 53.2 °F 30.2 in Calm   2 mph 77% 0 in 527 W/m2
11:32 61 °F 54.1 °F 30.2 in ENE 2 mph 2 mph 78% 0 in 534 W/m2
11:37 61.5 °F 54.3 °F 30.2 in ENE 0.9 mph 4 mph 77% 0 in 547 W/m2
11:42 61.9 °F 54.3 °F 30.2 in East 0.9 mph 3 mph 76% 0 in 548 W/m2
11:47 62.4 °F 55 °F 30.2 in East 0.9 mph 1 mph 77% 0 in 555 W/m2
11:52 63.3 °F 55.2 °F 30.2 in ESE 0.9 mph 4 mph 75% 0 in 568 W/m2
11:57 64 °F 55.2 °F 30.1 in East 4 mph 4 mph 73% 0 in 573 W/m2
12:02 64.9 °F 56.1 °F 30.1 in ENE 0.9 mph 3 mph 73% 0 in 584 W/m2
12:07 65.7 °F 55.9 °F 30.1 in East 4 mph 4 mph 71% 0 in 592 W/m2
12:12 66.4 °F 56.7 °F 30.1 in ESE 2 mph 3 mph 71% 0 in 598 W/m2
12:17 66.9 °F 55.9 °F 30.1 in East 2 mph 3 mph 68% 0 in 608 W/m2
12:22 67.6 °F 56.3 °F 30.1 in East 2.9 mph 3 mph 67% 0 in 610 W/m2
12:27 67.8 °F 55.2 °F 30.1 in WSW 2 mph 4 mph 64% 0 in 624 W/m2
12:32 68.2 °F 55 °F 30.1 in West 0.9 mph 3 mph 63% 0 in 633 W/m2
12:37 68.2 °F 54.1 °F 30.1 in NW 2.9 mph 4 mph 61% 0 in 636 W/m2
12:42 68.2 °F 55 °F 30.1 in Calm   2 mph 63% 0 in 643 W/m2
12:47 68.2 °F 54.1 °F 30.1 in WNW 4 mph 4 mph 61% 0 in 643 W/m2
12:52 68.2 °F 53.8 °F 30.1 in NW 2 mph 9 mph 60% 0 in 645 W/m2
12:57 68.4 °F 54.3 °F 30.1 in WNW 0.9 mph 6 mph 61% 0 in 647 W/m2
13:02 68.5 °F 54.5 °F 30.1 in NW 2 mph 9 mph 61% 0 in 650 W/m2
13:07 68.5 °F 55 °F 30.1 in WSW 2 mph 4 mph 62% 0 in 656 W/m2
13:12 68.7 °F 54.3 °F 30.1 in WSW 2.9 mph 7 mph 60% 0 in 659 W/m2
13:17 69.1 °F 54.7 °F 30.1 in WNW 2 mph 4 mph 60% 0 in 661 W/m2
13:22 69.1 °F 54.7 °F 30.1 in West 4 mph 4 mph 60% 0 in 659 W/m2
13:27 69.1 °F 54.1 °F 30.1 in South 0.9 mph 7 mph 59% 0 in 663 W/m2
13:32 69.3 °F 54.3 °F 30.1 in West 0.9 mph 4 mph 59% 0 in 663 W/m2
13:37 69.4 °F 54 °F 30.1 in WNW 2.9 mph 9 mph 58% 0 in 663 W/m2
13:43 69.3 °F 53.8 °F 30.1 in NW 0.9 mph 4 mph 58% 0 in 663 W/m2
13:48 69.4 °F 53.6 °F 30.1 in WNW 6.9 mph 9 mph 57% 0 in 661 W/m2
13:53 69.6 °F 53.8 °F 30.1 in West 2.9 mph 6 mph 57% 0 in 663 W/m2
13:58 69.8 °F 53.4 °F 30.1 in WNW 2.9 mph 7 mph 56% 0 in 656 W/m2
14:03 70 °F 54 °F 30.1 in WSW 4 mph 4 mph 57% 0 in 656 W/m2
14:08 70.3 °F 53.4 °F 30.1 in WNW 2.9 mph 7 mph 55% 0 in 657 W/m2
14:13 70.3 °F 54 °F 30.1 in West 4 mph 4 mph 56% 0 in 652 W/m2
14:18 70.5 °F 55 °F 30.1 in Calm   3 mph 58% 0 in 649 W/m2
14:23 71.1 °F 53.6 °F 30.1 in West 6 mph 12 mph 54% 0 in 649 W/m2
14:28 71.1 °F 53.6 °F 30.1 in WNW 2.9 mph 6 mph 54% 0 in 643 W/m2
14:33 71.2 °F 53.8 °F 30.1 in West 4 mph 12 mph 54% 0 in 640 W/m2
14:38 71.2 °F 53.2 °F 30.1 in WNW 0.9 mph 6 mph 53% 0 in 635 W/m2
14:43 71.8 °F 53.8 °F 30.1 in NW 2.9 mph 10 mph 53% 0 in 629 W/m2
14:48 71.8 °F 54.3 °F 30.1 in WNW 2.9 mph 7 mph 54% 0 in 621 W/m2
14:53 72 °F 54 °F 30.1 in WNW 4 mph 10 mph 53% 0 in 615 W/m2
14:58 71.8 °F 54.3 °F 30.1 in West 2.9 mph 8 mph 54% 0 in 608 W/m2
15:03 72 °F 54.9 °F 30.1 in East 0.9 mph 6 mph 55% 0 in 603 W/m2
15:08 72.1 °F 55 °F 30.1 in NW 2.9 mph 4 mph 55% 0 in 596 W/m2
15:13 72.3 °F 54.7 °F 30.1 in NW 2 mph 4 mph 54% 0 in 591 W/m2
15:18 72.5 °F 54.9 °F 30.1 in WSW 2.9 mph 8 mph 54% 0 in 584 W/m2
15:23 72.3 °F 54.7 °F 30.1 in NNW 4 mph 7 mph 54% 0 in 578 W/m2
15:28 72.5 °F 54 °F 30.1 in West 4 mph 7 mph 52% 0 in 571 W/m2
15:33 72.9 °F 54.1 °F 30.1 in SSW 2 mph 4 mph 52% 0 in 559 W/m2
15:38 72.7 °F 54 °F 30.1 in WNW 6.9 mph 9 mph 52% 0 in 559 W/m2
15:43 72.7 °F 55 °F 30.1 in WNW 4 mph 4 mph 54% 0 in 548 W/m2
15:48 72.9 °F 55.2 °F 30.1 in SW 6 mph 6 mph 54% 0 in 541 W/m2
15:53 72.9 °F 54.7 °F 30.1 in West 6 mph 9 mph 53% 0 in 533 W/m2
15:58 72.7 °F 55 °F 30.1 in WNW 4.9 mph 8 mph 54% 0 in 519 W/m2
16:03 72.7 °F 55 °F 30.1 in WSW 4.9 mph 9 mph 54% 0 in 512 W/m2
16:08 72.5 °F 54.9 °F 30.1 in WNW 2 mph 4 mph 54% 0 in 503 W/m2
16:13 72.7 °F 54.5 °F 30.1 in NW 8.1 mph 9 mph 53% 0 in 496 W/m2
16:18 72.3 °F 54.7 °F 30.1 in WNW 6.9 mph 9 mph 54% 0 in 485 W/m2
16:23 72 °F 54 °F 30.1 in West 6 mph 8 mph 53% 0 in 475 W/m2
16:28 72 °F 54.3 °F 30.1 in NW 6.9 mph 7 mph 54% 0 in 462 W/m2
16:33 72 °F 54.3 °F 30.1 in West 6 mph 9 mph 54% 0 in 448 W/m2
16:38 71.8 °F 53.8 °F 30.1 in WNW 11 mph 11 mph 53% 0 in 425 W/m2
16:43 71.8 °F 54.3 °F 30.1 in West 6 mph 10 mph 54% 0 in 376 W/m2
16:48 71.8 °F 53.8 °F 30.1 in WNW 8.1 mph 10 mph 53% 0 in 380 W/m2
16:53 71.4 °F 53.4 °F 30.1 in WNW 6.9 mph 8 mph 53% 0 in 399 W/m2
16:58 71.4 °F 53.4 °F 30.1 in West 10.1 mph 10 mph 53% 0 in 388 W/m2
17:03 71.2 °F 53.2 °F 30.1 in West 4 mph 10 mph 53% 0 in 376 W/m2
17:08 71.2 °F 53.2 °F 30.1 in South 4.9 mph 9 mph 53% 0 in 362 W/m2
17:13 71.1 °F 53.6 °F 30.1 in NNW 4 mph 9 mph 54% 0 in 350 W/m2
17:18 71.1 °F 53.6 °F 30.1 in West 2 mph 6 mph 54% 0 in 334 W/m2
17:23 71.1 °F 53.1 °F 30.1 in SW 4 mph 10 mph 53% 0 in 323 W/m2
17:28 71.1 °F 53.6 °F 30.1 in West 4 mph 8 mph 54% 0 in 311 W/m2
17:33 70.9 °F 53.4 °F 30.1 in SSW 6 mph 8 mph 54% 0 in 288 W/m2
17:38 70.9 °F 54 °F 30.1 in SW 4 mph 7 mph 55% 0 in 279 W/m2
17:43 70.9 °F 54 °F 30.1 in West 2.9 mph 6 mph 55% 0 in 271 W/m2
17:48 70.9 °F 54 °F 30.1 in West 4 mph 8 mph 55% 0 in 257 W/m2
17:53 70.9 °F 54.3 °F 30.1 in West 4 mph 5 mph 56% 0 in 243 W/m2
17:58 70.5 °F 54.1 °F 30.1 in WSW 8.1 mph 9 mph 56% 0 in 229 W/m2
18:03 70.3 °F 54.3 °F 30.1 in West 2.9 mph 4 mph 57% 0 in 132 W/m2
18:08 70 °F 54.5 °F 30.1 in WSW 9 mph 9 mph 58% 0 in 162 W/m2
18:13 69.8 °F 53.4 °F 30.1 in West 2.9 mph 7 mph 56% 0 in 185 W/m2
18:18 69.6 °F 53.2 °F 30.1 in West 4 mph 6 mph 56% 0 in 169 W/m2
18:23 69.3 °F 52.9 °F 30.1 in West 2 mph 6 mph 56% 0 in 155 W/m2
18:28 68.9 °F 53.1 °F 30.1 in WSW 2.9 mph 7 mph 57% 0 in 32 W/m2
18:33 68.4 °F 53.1 °F 30.1 in WNW 2.9 mph 3 mph 58% 0 in 30 W/m2
18:38 67.8 °F 52.9 °F 30.1 in West 2.9 mph 3 mph 59% 0 in 26 W/m2
18:43 67.3 °F 52.9 °F 30.1 in WSW 4 mph 4 mph 60% 0 in 25 W/m2
18:48 66.7 °F 52.9 °F 30.1 in West 2.9 mph 6 mph 61% 0 in 25 W/m2
18:53 66.6 °F 52.2 °F 30.1 in WSW 4.9 mph 9 mph 60% 0 in 23 W/m2
18:58 66.4 °F 52.5 °F 30.1 in WSW 0.9 mph 4 mph 61% 0 in 21 W/m2
19:03 66 °F 52.2 °F 30.1 in West 4 mph 7 mph 61% 0 in 21 W/m2
19:08 65.7 °F 52.3 °F 30.1 in WNW 2.9 mph 9 mph 62% 0 in 19 W/m2
19:13 65.5 °F 52.2 °F 30.1 in West 0.9 mph 6 mph 62% 0 in 16 W/m2
19:18 65.1 °F 52.2 °F 30.1 in WNW 2.9 mph 5 mph 63% 0 in 12 W/m2
19:23 64.9 °F 52 °F 30.1 in WSW 4 mph 4 mph 63% 0 in 9 W/m2
19:28 64.8 °F 52.3 °F 30.1 in West 4 mph 4 mph 64% 0 in 5 W/m2
19:33 64.4 °F 52.3 °F 30.1 in WSW 2 mph 8 mph 65% 0 in 0 W/m2
19:38 64.2 °F 52.2 °F 30.1 in NW 2 mph 5 mph 65% 0 in 5 W/m2
19:43 63.9 °F 52.3 °F 30.1 in WNW 2 mph 8 mph 66% 0 in 0 W/m2
19:49 63.7 °F 52.5 °F 30.1 in West 2 mph 4 mph 67% 0 in 0 W/m2
19:54 63.7 °F 52.5 °F 30.1 in West 2.9 mph 4 mph 67% 0 in 0 W/m2
Juneau County Weather
Compliments of Weather Underground - 2 mb